ENGM/OSL METAR and TAF weather

Enter ICAO airport designator
Station Type Date Time Source
ENGM METAR 2019/10/21 23:20 UTC NOAA

ENGM 212320Z 20008KT 9999 BKN013 04/03 Q1012


Station Type Date Time Source
ENGM Decoded METAR 2019/10/21 23:20 UTC NOAA

Oslo / Gardermoen, Norway (ENGM) 60-12N 011-05E 204M
Oct 21, 2019 - 07:20 PM EDT / 2019.10.21 2320 UTC
Wind: from the SSW (200 degrees) at 9 MPH (8 KT):0
Visibility: greater than 7 mile(s):0
Sky conditions: mostly cloudy
Temperature: 39 F (4 C)
Dew Point: 37 F (3 C)
Relative Humidity: 93%
Pressure (altimeter): 29.88 in. Hg (1012 hPa)
ob: ENGM 212320Z 20008KT 9999 BKN013 04/03 Q1012
cycle: 23

Station Type Date Time Source
ENGM TAF 2019/10/21 18:57 UTC NOAA

TAF ENGM 211700Z 2118/2218 19008KT 9999 BKN009
TEMPO 2118/2203 3000 BR BKN003
BECMG 2203/2205 FEW003 BKN040
TEMPO 2209/2215 19015G25KT

Example: see airport list